sensor_id;sensor_type;location;lat;lon;timestamp;temperature;humidity
19252;DHT22;9760;50.944;5.304;2023-04-15T00:00:25;8.30;99.90
19252;DHT22;9760;50.944;5.304;2023-04-15T00:02:51;8.40;99.90
19252;DHT22;9760;50.944;5.304;2023-04-15T00:05:17;8.50;99.90
19252;DHT22;9760;50.944;5.304;2023-04-15T00:07:43;8.60;99.90
19252;DHT22;9760;50.944;5.304;2023-04-15T00:10:10;8.70;99.90
19252;DHT22;9760;50.944;5.304;2023-04-15T00:12:35;8.80;99.90
19252;DHT22;9760;50.944;5.304;2023-04-15T00:15:01;8.80;99.90
19252;DHT22;9760;50.944;5.304;2023-04-15T00:17:27;8.70;99.90
19252;DHT22;9760;50.944;5.304;2023-04-15T00:19:52;8.70;99.90
19252;DHT22;9760;50.944;5.304;2023-04-15T00:22:18;8.70;99.90
19252;DHT22;9760;50.944;5.304;2023-04-15T00:24:44;8.70;99.90
19252;DHT22;9760;50.944;5.304;2023-04-15T00:27:10;8.50;99.90
19252;DHT22;9760;50.944;5.304;2023-04-15T00:29:36;8.60;99.90
19252;DHT22;9760;50.944;5.304;2023-04-15T00:32:01;8.70;99.90
19252;DHT22;9760;50.944;5.304;2023-04-15T00:34:27;8.80;99.90
19252;DHT22;9760;50.944;5.304;2023-04-15T00:36:53;8.90;99.90
19252;DHT22;9760;50.944;5.304;2023-04-15T00:39:19;9.00;99.90
19252;DHT22;9760;50.944;5.304;2023-04-15T00:41:45;8.80;99.90
19252;DHT22;9760;50.944;5.304;2023-04-15T00:44:11;8.70;99.90
19252;DHT22;9760;50.944;5.304;2023-04-15T00:46:38;8.80;99.90
19252;DHT22;9760;50.944;5.304;2023-04-15T00:49:05;8.90;99.90
19252;DHT22;9760;50.944;5.304;2023-04-15T00:51:31;9.00;99.90
19252;DHT22;9760;50.944;5.304;2023-04-15T00:53:58;8.90;99.90
19252;DHT22;9760;50.944;5.304;2023-04-15T00:56:26;8.70;99.90
19252;DHT22;9760;50.944;5.304;2023-04-15T00:58:53;8.70;99.90
19252;DHT22;9760;50.944;5.304;2023-04-15T01:01:24;8.70;99.90
19252;DHT22;9760;50.944;5.304;2023-04-15T01:03:50;8.80;99.90
19252;DHT22;9760;50.944;5.304;2023-04-15T01:06:17;8.80;99.90
19252;DHT22;9760;50.944;5.304;2023-04-15T01:08:43;8.90;99.90
19252;DHT22;9760;50.944;5.304;2023-04-15T01:11:11;8.90;99.90
19252;DHT22;9760;50.944;5.304;2023-04-15T01:13:37;8.90;99.90
19252;DHT22;9760;50.944;5.304;2023-04-15T01:16:03;8.80;99.90
19252;DHT22;9760;50.944;5.304;2023-04-15T01:18:29;8.80;99.90
19252;DHT22;9760;50.944;5.304;2023-04-15T01:20:56;8.80;99.90
19252;DHT22;9760;50.944;5.304;2023-04-15T01:23:22;8.80;99.90
19252;DHT22;9760;50.944;5.304;2023-04-15T01:25:49;8.90;99.90
19252;DHT22;9760;50.944;5.304;2023-04-15T01:28:15;8.80;99.90
19252;DHT22;9760;50.944;5.304;2023-04-15T01:30:41;9.00;99.90
19252;DHT22;9760;50.944;5.304;2023-04-15T01:33:07;9.10;99.90
19252;DHT22;9760;50.944;5.304;2023-04-15T01:35:32;9.20;99.90
19252;DHT22;9760;50.944;5.304;2023-04-15T01:38:05;9.10;99.90
19252;DHT22;9760;50.944;5.304;2023-04-15T01:40:32;9.20;99.90
19252;DHT22;9760;50.944;5.304;2023-04-15T01:42:58;9.20;99.90
19252;DHT22;9760;50.944;5.304;2023-04-15T01:45:24;9.10;99.90
19252;DHT22;9760;50.944;5.304;2023-04-15T01:47:50;9.20;99.90
19252;DHT22;9760;50.944;5.304;2023-04-15T01:50:15;9.00;99.90
19252;DHT22;9760;50.944;5.304;2023-04-15T01:52:41;9.00;99.90
19252;DHT22;9760;50.944;5.304;2023-04-15T01:55:08;9.00;99.90
19252;DHT22;9760;50.944;5.304;2023-04-15T01:57:34;9.00;99.90
19252;DHT22;9760;50.944;5.304;2023-04-15T01:59:59;8.70;99.90
19252;DHT22;9760;50.944;5.304;2023-04-15T02:02:25;8.60;99.90
19252;DHT22;9760;50.944;5.304;2023-04-15T02:04:51;8.70;99.90
19252;DHT22;9760;50.944;5.304;2023-04-15T02:07:18;8.70;99.90
19252;DHT22;9760;50.944;5.304;2023-04-15T02:09:44;8.80;99.90
19252;DHT22;9760;50.944;5.304;2023-04-15T02:12:10;9.00;99.90
19252;DHT22;9760;50.944;5.304;2023-04-15T02:14:36;9.00;99.90
19252;DHT22;9760;50.944;5.304;2023-04-15T02:17:01;9.00;99.90
19252;DHT22;9760;50.944;5.304;2023-04-15T02:19:32;9.00;99.90
19252;DHT22;9760;50.944;5.304;2023-04-15T02:21:58;8.90;99.90
19252;DHT22;9760;50.944;5.304;2023-04-15T02:24:25;9.10;99.90
19252;DHT22;9760;50.944;5.304;2023-04-15T02:26:50;9.10;99.90
19252;DHT22;9760;50.944;5.304;2023-04-15T02:29:16;9.10;99.90
19252;DHT22;9760;50.944;5.304;2023-04-15T02:31:41;8.90;99.90
19252;DHT22;9760;50.944;5.304;2023-04-15T02:34:08;8.80;99.90
19252;DHT22;9760;50.944;5.304;2023-04-15T02:36:33;8.70;99.90
19252;DHT22;9760;50.944;5.304;2023-04-15T02:38:59;8.70;99.90
19252;DHT22;9760;50.944;5.304;2023-04-15T02:41:25;8.60;99.90
19252;DHT22;9760;50.944;5.304;2023-04-15T02:43:53;8.40;99.90
19252;DHT22;9760;50.944;5.304;2023-04-15T02:46:18;8.50;99.90
19252;DHT22;9760;50.944;5.304;2023-04-15T02:48:46;8.50;99.90
19252;DHT22;9760;50.944;5.304;2023-04-15T02:51:19;8.60;99.90
19252;DHT22;9760;50.944;5.304;2023-04-15T02:53:46;8.60;99.90
19252;DHT22;9760;50.944;5.304;2023-04-15T02:56:12;8.50;99.90
19252;DHT22;9760;50.944;5.304;2023-04-15T02:58:40;8.40;99.90
19252;DHT22;9760;50.944;5.304;2023-04-15T03:01:06;8.50;99.90
19252;DHT22;9760;50.944;5.304;2023-04-15T03:03:33;8.40;99.90
19252;DHT22;9760;50.944;5.304;2023-04-15T03:05:59;8.40;99.90
19252;DHT22;9760;50.944;5.304;2023-04-15T03:08:25;8.60;99.90
19252;DHT22;9760;50.944;5.304;2023-04-15T03:10:51;8.80;99.90
19252;DHT22;9760;50.944;5.304;2023-04-15T03:13:17;8.90;99.90
19252;DHT22;9760;50.944;5.304;2023-04-15T03:15:46;8.90;99.90
19252;DHT22;9760;50.944;5.304;2023-04-15T03:18:11;8.90;99.90
19252;DHT22;9760;50.944;5.304;2023-04-15T03:20:37;8.70;99.90
19252;DHT22;9760;50.944;5.304;2023-04-15T03:23:03;8.70;99.90
19252;DHT22;9760;50.944;5.304;2023-04-15T03:25:28;8.80;99.90
19252;DHT22;9760;50.944;5.304;2023-04-15T03:27:54;8.90;99.90
19252;DHT22;9760;50.944;5.304;2023-04-15T03:30:19;8.90;99.90
19252;DHT22;9760;50.944;5.304;2023-04-15T03:32:45;8.90;99.90
19252;DHT22;9760;50.944;5.304;2023-04-15T03:35:11;8.90;99.90
19252;DHT22;9760;50.944;5.304;2023-04-15T03:37:37;9.00;99.90
19252;DHT22;9760;50.944;5.304;2023-04-15T03:40:03;9.00;99.90
19252;DHT22;9760;50.944;5.304;2023-04-15T03:42:28;9.00;99.90
19252;DHT22;9760;50.944;5.304;2023-04-15T03:44:54;9.10;99.90
19252;DHT22;9760;50.944;5.304;2023-04-15T03:47:20;9.00;99.90
19252;DHT22;9760;50.944;5.304;2023-04-15T03:49:46;8.90;99.90
19252;DHT22;9760;50.944;5.304;2023-04-15T03:52:11;9.00;99.90
19252;DHT22;9760;50.944;5.304;2023-04-15T03:54:37;8.90;99.90
19252;DHT22;9760;50.944;5.304;2023-04-15T03:57:02;9.00;99.90
19252;DHT22;9760;50.944;5.304;2023-04-15T03:59:28;9.00;99.90
19252;DHT22;9760;50.944;5.304;2023-04-15T04:01:53;9.00;99.90
19252;DHT22;9760;50.944;5.304;2023-04-15T04:04:19;9.00;99.90
19252;DHT22;9760;50.944;5.304;2023-04-15T04:06:45;8.90;99.90
19252;DHT22;9760;50.944;5.304;2023-04-15T04:09:10;8.90;99.90
19252;DHT22;9760;50.944;5.304;2023-04-15T04:11:36;8.90;99.90
19252;DHT22;9760;50.944;5.304;2023-04-15T04:14:02;8.90;99.90
19252;DHT22;9760;50.944;5.304;2023-04-15T04:16:27;8.90;99.90
19252;DHT22;9760;50.944;5.304;2023-04-15T04:18:53;8.90;99.90
19252;DHT22;9760;50.944;5.304;2023-04-15T04:21:19;8.80;99.90
19252;DHT22;9760;50.944;5.304;2023-04-15T04:23:45;8.80;99.90
19252;DHT22;9760;50.944;5.304;2023-04-15T04:26:11;8.70;99.90
19252;DHT22;9760;50.944;5.304;2023-04-15T04:28:37;8.50;99.90
19252;DHT22;9760;50.944;5.304;2023-04-15T04:31:05;8.40;99.90
19252;DHT22;9760;50.944;5.304;2023-04-15T04:33:32;8.50;99.90
19252;DHT22;9760;50.944;5.304;2023-04-15T04:35:57;8.40;99.90
19252;DHT22;9760;50.944;5.304;2023-04-15T04:38:23;8.40;99.90
19252;DHT22;9760;50.944;5.304;2023-04-15T04:40:49;8.40;99.90
19252;DHT22;9760;50.944;5.304;2023-04-15T04:43:14;8.40;99.90
19252;DHT22;9760;50.944;5.304;2023-04-15T04:45:40;8.40;99.90
19252;DHT22;9760;50.944;5.304;2023-04-15T04:48:06;8.40;99.90
19252;DHT22;9760;50.944;5.304;2023-04-15T04:50:33;8.50;99.90
19252;DHT22;9760;50.944;5.304;2023-04-15T04:53:00;8.60;99.90
19252;DHT22;9760;50.944;5.304;2023-04-15T04:55:26;8.70;99.90
19252;DHT22;9760;50.944;5.304;2023-04-15T04:57:52;8.60;99.90
19252;DHT22;9760;50.944;5.304;2023-04-15T05:00:17;8.50;99.90
19252;DHT22;9760;50.944;5.304;2023-04-15T05:02:44;8.50;99.90
19252;DHT22;9760;50.944;5.304;2023-04-15T05:05:09;8.60;99.90
19252;DHT22;9760;50.944;5.304;2023-04-15T05:07:36;8.40;99.90
19252;DHT22;9760;50.944;5.304;2023-04-15T05:10:02;8.40;99.90
19252;DHT22;9760;50.944;5.304;2023-04-15T05:12:28;8.40;99.90
19252;DHT22;9760;50.944;5.304;2023-04-15T05:14:53;8.50;99.90
19252;DHT22;9760;50.944;5.304;2023-04-15T05:17:19;8.60;99.90
19252;DHT22;9760;50.944;5.304;2023-04-15T05:19:45;8.60;99.90
19252;DHT22;9760;50.944;5.304;2023-04-15T05:22:10;8.60;99.90
19252;DHT22;9760;50.944;5.304;2023-04-15T05:24:36;8.60;99.90
19252;DHT22;9760;50.944;5.304;2023-04-15T05:27:01;8.60;99.90
19252;DHT22;9760;50.944;5.304;2023-04-15T05:29:27;8.50;99.90
19252;DHT22;9760;50.944;5.304;2023-04-15T05:31:53;8.60;99.90
19252;DHT22;9760;50.944;5.304;2023-04-15T05:34:19;8.60;99.90
19252;DHT22;9760;50.944;5.304;2023-04-15T05:36:44;8.70;99.90
19252;DHT22;9760;50.944;5.304;2023-04-15T05:39:10;8.60;99.90
19252;DHT22;9760;50.944;5.304;2023-04-15T05:41:36;8.60;99.90
19252;DHT22;9760;50.944;5.304;2023-04-15T05:44:02;8.60;99.90
19252;DHT22;9760;50.944;5.304;2023-04-15T05:46:28;8.60;99.90
19252;DHT22;9760;50.944;5.304;2023-04-15T05:48:53;8.50;99.90
19252;DHT22;9760;50.944;5.304;2023-04-15T05:51:19;8.60;99.90
19252;DHT22;9760;50.944;5.304;2023-04-15T05:53:45;8.60;99.90
19252;DHT22;9760;50.944;5.304;2023-04-15T05:56:10;8.60;99.90
19252;DHT22;9760;50.944;5.304;2023-04-15T05:58:36;8.70;99.90
19252;DHT22;9760;50.944;5.304;2023-04-15T06:01:02;8.90;99.90
19252;DHT22;9760;50.944;5.304;2023-04-15T06:03:28;8.90;99.90
19252;DHT22;9760;50.944;5.304;2023-04-15T06:05:53;8.90;99.90
19252;DHT22;9760;50.944;5.304;2023-04-15T06:08:19;8.90;99.90
19252;DHT22;9760;50.944;5.304;2023-04-15T06:10:46;8.90;99.90
19252;DHT22;9760;50.944;5.304;2023-04-15T06:13:12;8.90;99.90
19252;DHT22;9760;50.944;5.304;2023-04-15T06:15:37;9.00;99.90
19252;DHT22;9760;50.944;5.304;2023-04-15T06:18:03;9.00;99.90
19252;DHT22;9760;50.944;5.304;2023-04-15T06:20:29;9.00;99.90
19252;DHT22;9760;50.944;5.304;2023-04-15T06:22:55;8.90;99.90
19252;DHT22;9760;50.944;5.304;2023-04-15T06:25:21;9.00;99.90
19252;DHT22;9760;50.944;5.304;2023-04-15T06:27:47;8.90;99.90
19252;DHT22;9760;50.944;5.304;2023-04-15T06:30:13;8.90;99.90
19252;DHT22;9760;50.944;5.304;2023-04-15T06:32:39;8.90;99.90
19252;DHT22;9760;50.944;5.304;2023-04-15T06:35:05;9.00;99.90
19252;DHT22;9760;50.944;5.304;2023-04-15T06:37:30;9.20;99.90
19252;DHT22;9760;50.944;5.304;2023-04-15T06:39:57;9.30;99.90
19252;DHT22;9760;50.944;5.304;2023-04-15T06:42:22;9.50;99.90
19252;DHT22;9760;50.944;5.304;2023-04-15T06:44:48;9.60;99.90
19252;DHT22;9760;50.944;5.304;2023-04-15T06:47:14;9.70;99.90
19252;DHT22;9760;50.944;5.304;2023-04-15T06:49:40;9.90;99.90
19252;DHT22;9760;50.944;5.304;2023-04-15T06:52:07;10.00;99.90
19252;DHT22;9760;50.944;5.304;2023-04-15T06:54:33;10.10;99.90
19252;DHT22;9760;50.944;5.304;2023-04-15T06:56:59;10.10;99.90
19252;DHT22;9760;50.944;5.304;2023-04-15T06:59:25;10.30;99.90
19252;DHT22;9760;50.944;5.304;2023-04-15T07:01:51;10.40;99.90
19252;DHT22;9760;50.944;5.304;2023-04-15T07:04:17;10.70;99.90
19252;DHT22;9760;50.944;5.304;2023-04-15T07:06:43;10.70;99.90
19252;DHT22;9760;50.944;5.304;2023-04-15T07:09:08;10.80;99.90
19252;DHT22;9760;50.944;5.304;2023-04-15T07:11:35;10.80;99.90
19252;DHT22;9760;50.944;5.304;2023-04-15T07:14:01;10.80;99.90
19252;DHT22;9760;50.944;5.304;2023-04-15T07:16:26;10.80;99.90
19252;DHT22;9760;50.944;5.304;2023-04-15T07:18:52;10.90;99.90
19252;DHT22;9760;50.944;5.304;2023-04-15T07:21:18;11.00;99.90
19252;DHT22;9760;50.944;5.304;2023-04-15T07:23:44;11.00;99.90
19252;DHT22;9760;50.944;5.304;2023-04-15T07:26:09;11.00;99.90
19252;DHT22;9760;50.944;5.304;2023-04-15T07:28:35;11.10;99.90
19252;DHT22;9760;50.944;5.304;2023-04-15T07:31:01;11.10;99.90
19252;DHT22;9760;50.944;5.304;2023-04-15T07:33:26;11.20;99.90
19252;DHT22;9760;50.944;5.304;2023-04-15T07:35:52;11.30;99.90
19252;DHT22;9760;50.944;5.304;2023-04-15T07:38:18;11.40;99.90
19252;DHT22;9760;50.944;5.304;2023-04-15T07:40:43;11.50;99.90
19252;DHT22;9760;50.944;5.304;2023-04-15T07:43:10;11.60;99.90
19252;DHT22;9760;50.944;5.304;2023-04-15T07:45:36;11.70;99.90
19252;DHT22;9760;50.944;5.304;2023-04-15T07:48:02;11.80;99.90
19252;DHT22;9760;50.944;5.304;2023-04-15T07:50:27;11.80;99.90
19252;DHT22;9760;50.944;5.304;2023-04-15T07:52:53;11.90;99.90
19252;DHT22;9760;50.944;5.304;2023-04-15T07:55:19;12.00;99.90
19252;DHT22;9760;50.944;5.304;2023-04-15T07:57:47;12.00;99.90
19252;DHT22;9760;50.944;5.304;2023-04-15T08:00:13;12.10;99.90
19252;DHT22;9760;50.944;5.304;2023-04-15T08:02:40;12.30;99.90
19252;DHT22;9760;50.944;5.304;2023-04-15T08:05:08;12.40;99.90
19252;DHT22;9760;50.944;5.304;2023-04-15T08:07:34;12.50;99.90
19252;DHT22;9760;50.944;5.304;2023-04-15T08:09:59;12.60;99.90
19252;DHT22;9760;50.944;5.304;2023-04-15T08:12:25;12.60;99.90
19252;DHT22;9760;50.944;5.304;2023-04-15T08:14:51;12.60;99.90
19252;DHT22;9760;50.944;5.304;2023-04-15T08:17:17;12.60;99.90
19252;DHT22;9760;50.944;5.304;2023-04-15T08:19:42;12.60;99.90
19252;DHT22;9760;50.944;5.304;2023-04-15T08:22:09;12.60;99.90
19252;DHT22;9760;50.944;5.304;2023-04-15T08:24:34;12.50;99.90
19252;DHT22;9760;50.944;5.304;2023-04-15T08:27:01;12.50;99.90
19252;DHT22;9760;50.944;5.304;2023-04-15T08:29:29;12.60;99.90
19252;DHT22;9760;50.944;5.304;2023-04-15T08:31:54;12.70;99.90
19252;DHT22;9760;50.944;5.304;2023-04-15T08:34:20;12.70;99.90
19252;DHT22;9760;50.944;5.304;2023-04-15T08:36:45;12.70;99.90
19252;DHT22;9760;50.944;5.304;2023-04-15T08:39:11;12.60;99.90
19252;DHT22;9760;50.944;5.304;2023-04-15T08:41:45;12.50;99.90
19252;DHT22;9760;50.944;5.304;2023-04-15T08:44:13;12.40;99.90
19252;DHT22;9760;50.944;5.304;2023-04-15T08:46:40;12.50;99.90
19252;DHT22;9760;50.944;5.304;2023-04-15T08:49:10;12.70;99.90
19252;DHT22;9760;50.944;5.304;2023-04-15T08:51:37;12.70;99.90
19252;DHT22;9760;50.944;5.304;2023-04-15T08:54:04;12.70;99.90
19252;DHT22;9760;50.944;5.304;2023-04-15T08:56:30;12.70;99.90
19252;DHT22;9760;50.944;5.304;2023-04-15T08:59:00;12.80;99.90
19252;DHT22;9760;50.944;5.304;2023-04-15T09:01:26;12.80;99.90
19252;DHT22;9760;50.944;5.304;2023-04-15T09:03:53;13.00;99.90
19252;DHT22;9760;50.944;5.304;2023-04-15T09:06:20;13.00;99.90
19252;DHT22;9760;50.944;5.304;2023-04-15T09:08:46;13.10;99.90
19252;DHT22;9760;50.944;5.304;2023-04-15T09:11:12;13.20;99.90
19252;DHT22;9760;50.944;5.304;2023-04-15T09:13:38;13.20;99.90
19252;DHT22;9760;50.944;5.304;2023-04-15T09:16:05;13.10;99.90
19252;DHT22;9760;50.944;5.304;2023-04-15T09:18:33;13.30;99.90
19252;DHT22;9760;50.944;5.304;2023-04-15T09:21:10;13.40;99.90
19252;DHT22;9760;50.944;5.304;2023-04-15T09:23:39;13.40;99.90
19252;DHT22;9760;50.944;5.304;2023-04-15T09:26:05;13.40;99.90
19252;DHT22;9760;50.944;5.304;2023-04-15T09:28:32;13.50;99.90
19252;DHT22;9760;50.944;5.304;2023-04-15T09:31:01;13.70;99.90
19252;DHT22;9760;50.944;5.304;2023-04-15T09:33:28;13.90;99.90
19252;DHT22;9760;50.944;5.304;2023-04-15T09:36:02;14.00;99.90
19252;DHT22;9760;50.944;5.304;2023-04-15T09:38:29;14.10;99.90
19252;DHT22;9760;50.944;5.304;2023-04-15T09:40:56;14.00;99.90
19252;DHT22;9760;50.944;5.304;2023-04-15T09:43:22;13.90;99.90
19252;DHT22;9760;50.944;5.304;2023-04-15T09:46:01;13.80;99.90
19252;DHT22;9760;50.944;5.304;2023-04-15T09:48:27;13.80;99.90
19252;DHT22;9760;50.944;5.304;2023-04-15T09:50:54;14.00;99.90
19252;DHT22;9760;50.944;5.304;2023-04-15T09:53:23;14.20;99.90
19252;DHT22;9760;50.944;5.304;2023-04-15T09:55:53;14.20;99.90
19252;DHT22;9760;50.944;5.304;2023-04-15T09:58:24;14.40;99.90
19252;DHT22;9760;50.944;5.304;2023-04-15T10:00:52;14.30;99.90
19252;DHT22;9760;50.944;5.304;2023-04-15T10:03:22;14.40;99.90
19252;DHT22;9760;50.944;5.304;2023-04-15T10:05:50;14.20;99.90
19252;DHT22;9760;50.944;5.304;2023-04-15T10:08:19;14.30;99.90
19252;DHT22;9760;50.944;5.304;2023-04-15T10:10:46;14.50;99.90
19252;DHT22;9760;50.944;5.304;2023-04-15T10:13:18;14.50;99.90
19252;DHT22;9760;50.944;5.304;2023-04-15T10:15:44;14.90;99.90
19252;DHT22;9760;50.944;5.304;2023-04-15T10:18:15;15.10;99.90
19252;DHT22;9760;50.944;5.304;2023-04-15T10:20:42;15.00;99.90
19252;DHT22;9760;50.944;5.304;2023-04-15T10:23:08;15.10;99.90
19252;DHT22;9760;50.944;5.304;2023-04-15T10:25:34;15.30;99.90
19252;DHT22;9760;50.944;5.304;2023-04-15T10:28:01;15.30;99.90
19252;DHT22;9760;50.944;5.304;2023-04-15T10:30:27;15.70;99.90
19252;DHT22;9760;50.944;5.304;2023-04-15T10:32:54;16.00;99.90
19252;DHT22;9760;50.944;5.304;2023-04-15T10:35:21;16.20;99.90
19252;DHT22;9760;50.944;5.304;2023-04-15T10:37:47;16.60;99.90
19252;DHT22;9760;50.944;5.304;2023-04-15T10:40:28;16.70;99.90
19252;DHT22;9760;50.944;5.304;2023-04-15T10:42:58;16.80;99.90
19252;DHT22;9760;50.944;5.304;2023-04-15T10:45:31;16.90;99.90
19252;DHT22;9760;50.944;5.304;2023-04-15T10:48:01;16.80;99.90
19252;DHT22;9760;50.944;5.304;2023-04-15T10:50:27;17.20;99.90
19252;DHT22;9760;50.944;5.304;2023-04-15T10:52:55;16.80;99.90
19252;DHT22;9760;50.944;5.304;2023-04-15T10:55:25;17.10;99.90
19252;DHT22;9760;50.944;5.304;2023-04-15T10:57:58;17.20;99.90
19252;DHT22;9760;50.944;5.304;2023-04-15T11:00:27;17.60;99.90
19252;DHT22;9760;50.944;5.304;2023-04-15T11:03:08;18.00;99.90
19252;DHT22;9760;50.944;5.304;2023-04-15T11:08:06;18.10;99.90
19252;DHT22;9760;50.944;5.304;2023-04-15T11:10:49;18.00;99.90
19252;DHT22;9760;50.944;5.304;2023-04-15T11:13:16;17.80;99.90
19252;DHT22;9760;50.944;5.304;2023-04-15T11:15:44;17.80;99.90
19252;DHT22;9760;50.944;5.304;2023-04-15T11:18:19;18.30;99.90
19252;DHT22;9760;50.944;5.304;2023-04-15T11:20:51;18.60;99.90
19252;DHT22;9760;50.944;5.304;2023-04-15T11:23:44;18.90;99.90
19252;DHT22;9760;50.944;5.304;2023-04-15T11:26:12;18.90;99.90
19252;DHT22;9760;50.944;5.304;2023-04-15T11:28:40;18.00;99.90
19252;DHT22;9760;50.944;5.304;2023-04-15T11:31:14;18.00;99.90
19252;DHT22;9760;50.944;5.304;2023-04-15T11:33:59;18.50;99.90
19252;DHT22;9760;50.944;5.304;2023-04-15T11:36:26;18.80;99.90
19252;DHT22;9760;50.944;5.304;2023-04-15T11:38:52;18.90;99.90
19252;DHT22;9760;50.944;5.304;2023-04-15T11:41:22;18.60;99.90
19252;DHT22;9760;50.944;5.304;2023-04-15T11:43:48;18.50;99.90
19252;DHT22;9760;50.944;5.304;2023-04-15T11:46:14;18.20;99.90
19252;DHT22;9760;50.944;5.304;2023-04-15T11:48:45;18.10;99.90
19252;DHT22;9760;50.944;5.304;2023-04-15T11:51:12;17.80;99.90
19252;DHT22;9760;50.944;5.304;2023-04-15T11:53:45;17.30;99.90
19252;DHT22;9760;50.944;5.304;2023-04-15T11:56:24;16.80;99.90
19252;DHT22;9760;50.944;5.304;2023-04-15T11:58:58;16.20;99.90
19252;DHT22;9760;50.944;5.304;2023-04-15T12:01:37;15.90;99.90
19252;DHT22;9760;50.944;5.304;2023-04-15T12:04:12;15.60;99.90
19252;DHT22;9760;50.944;5.304;2023-04-15T12:06:39;15.50;99.90
19252;DHT22;9760;50.944;5.304;2023-04-15T12:11:42;15.50;99.90
19252;DHT22;9760;50.944;5.304;2023-04-15T12:14:09;15.70;99.90
19252;DHT22;9760;50.944;5.304;2023-04-15T12:16:38;15.80;99.90
19252;DHT22;9760;50.944;5.304;2023-04-15T12:19:08;15.70;99.90
19252;DHT22;9760;50.944;5.304;2023-04-15T12:21:36;15.60;99.90
19252;DHT22;9760;50.944;5.304;2023-04-15T12:24:05;15.80;99.90
19252;DHT22;9760;50.944;5.304;2023-04-15T12:26:43;15.90;99.90
19252;DHT22;9760;50.944;5.304;2023-04-15T12:29:11;15.90;99.90
19252;DHT22;9760;50.944;5.304;2023-04-15T12:31:47;15.60;99.90
19252;DHT22;9760;50.944;5.304;2023-04-15T12:34:14;15.20;99.90
19252;DHT22;9760;50.944;5.304;2023-04-15T12:36:40;15.10;99.90
19252;DHT22;9760;50.944;5.304;2023-04-15T12:39:05;15.30;99.90
19252;DHT22;9760;50.944;5.304;2023-04-15T12:41:32;15.30;99.90
19252;DHT22;9760;50.944;5.304;2023-04-15T12:43:57;15.40;99.90
19252;DHT22;9760;50.944;5.304;2023-04-15T12:46:23;15.50;99.90
19252;DHT22;9760;50.944;5.304;2023-04-15T12:48:50;15.50;99.90
19252;DHT22;9760;50.944;5.304;2023-04-15T12:51:16;15.50;99.90
19252;DHT22;9760;50.944;5.304;2023-04-15T12:53:42;15.60;99.90
19252;DHT22;9760;50.944;5.304;2023-04-15T12:56:07;15.50;99.90
19252;DHT22;9760;50.944;5.304;2023-04-15T12:58:33;15.40;99.90
19252;DHT22;9760;50.944;5.304;2023-04-15T13:00:58;15.20;99.90
19252;DHT22;9760;50.944;5.304;2023-04-15T13:03:24;15.40;99.90
19252;DHT22;9760;50.944;5.304;2023-04-15T13:05:50;15.40;99.90
19252;DHT22;9760;50.944;5.304;2023-04-15T13:08:16;15.50;99.90
19252;DHT22;9760;50.944;5.304;2023-04-15T13:10:42;15.70;99.90
19252;DHT22;9760;50.944;5.304;2023-04-15T13:13:08;15.90;99.90
19252;DHT22;9760;50.944;5.304;2023-04-15T13:15:34;15.80;99.90
19252;DHT22;9760;50.944;5.304;2023-04-15T13:17:59;15.70;99.90
19252;DHT22;9760;50.944;5.304;2023-04-15T13:20:25;15.40;99.90
19252;DHT22;9760;50.944;5.304;2023-04-15T13:22:52;15.40;99.90
19252;DHT22;9760;50.944;5.304;2023-04-15T13:25:18;15.50;99.90
19252;DHT22;9760;50.944;5.304;2023-04-15T13:27:44;15.60;99.90
19252;DHT22;9760;50.944;5.304;2023-04-15T13:30:09;15.80;99.90
19252;DHT22;9760;50.944;5.304;2023-04-15T13:32:35;15.70;99.90
19252;DHT22;9760;50.944;5.304;2023-04-15T13:35:01;15.60;99.90
19252;DHT22;9760;50.944;5.304;2023-04-15T13:37:27;15.50;99.90
19252;DHT22;9760;50.944;5.304;2023-04-15T13:39:54;15.40;99.90
19252;DHT22;9760;50.944;5.304;2023-04-15T13:42:20;15.40;99.90
19252;DHT22;9760;50.944;5.304;2023-04-15T13:44:46;15.50;99.90
19252;DHT22;9760;50.944;5.304;2023-04-15T13:47:12;15.50;99.90
19252;DHT22;9760;50.944;5.304;2023-04-15T13:49:39;15.50;99.90
19252;DHT22;9760;50.944;5.304;2023-04-15T13:52:05;15.70;99.90
19252;DHT22;9760;50.944;5.304;2023-04-15T13:54:31;15.50;99.90
19252;DHT22;9760;50.944;5.304;2023-04-15T13:56:56;15.50;99.90
19252;DHT22;9760;50.944;5.304;2023-04-15T13:59:22;15.80;99.90
19252;DHT22;9760;50.944;5.304;2023-04-15T14:01:48;15.90;99.90
19252;DHT22;9760;50.944;5.304;2023-04-15T14:04:14;15.70;99.90
19252;DHT22;9760;50.944;5.304;2023-04-15T14:06:39;15.70;99.90
19252;DHT22;9760;50.944;5.304;2023-04-15T14:09:05;15.50;99.90
19252;DHT22;9760;50.944;5.304;2023-04-15T14:11:31;15.50;99.90
19252;DHT22;9760;50.944;5.304;2023-04-15T14:13:59;15.50;99.90
19252;DHT22;9760;50.944;5.304;2023-04-15T14:16:25;15.50;99.90
19252;DHT22;9760;50.944;5.304;2023-04-15T14:18:51;15.60;99.90
19252;DHT22;9760;50.944;5.304;2023-04-15T14:21:16;15.80;99.90
19252;DHT22;9760;50.944;5.304;2023-04-15T14:23:42;15.70;99.90
19252;DHT22;9760;50.944;5.304;2023-04-15T14:26:08;15.40;99.90
19252;DHT22;9760;50.944;5.304;2023-04-15T14:28:33;15.40;99.90
19252;DHT22;9760;50.944;5.304;2023-04-15T14:30:59;15.70;99.90
19252;DHT22;9760;50.944;5.304;2023-04-15T14:33:25;16.20;99.90
19252;DHT22;9760;50.944;5.304;2023-04-15T14:35:51;16.20;99.90
19252;DHT22;9760;50.944;5.304;2023-04-15T14:38:16;16.10;99.90
19252;DHT22;9760;50.944;5.304;2023-04-15T14:40:42;16.30;99.90
19252;DHT22;9760;50.944;5.304;2023-04-15T14:43:07;16.70;99.90
19252;DHT22;9760;50.944;5.304;2023-04-15T14:45:33;16.80;99.90
19252;DHT22;9760;50.944;5.304;2023-04-15T14:47:59;16.50;99.90
19252;DHT22;9760;50.944;5.304;2023-04-15T14:50:25;16.50;99.90
19252;DHT22;9760;50.944;5.304;2023-04-15T14:52:51;16.30;99.90
19252;DHT22;9760;50.944;5.304;2023-04-15T14:55:16;15.80;99.90
19252;DHT22;9760;50.944;5.304;2023-04-15T14:57:42;15.60;99.90
19252;DHT22;9760;50.944;5.304;2023-04-15T15:00:09;15.70;99.90
19252;DHT22;9760;50.944;5.304;2023-04-15T15:02:36;15.80;99.90
19252;DHT22;9760;50.944;5.304;2023-04-15T15:05:02;15.60;99.90
19252;DHT22;9760;50.944;5.304;2023-04-15T15:07:28;15.50;99.90
19252;DHT22;9760;50.944;5.304;2023-04-15T15:09:54;15.70;99.90
19252;DHT22;9760;50.944;5.304;2023-04-15T15:12:20;15.70;99.90
19252;DHT22;9760;50.944;5.304;2023-04-15T15:14:47;15.50;99.90
19252;DHT22;9760;50.944;5.304;2023-04-15T15:17:12;15.30;99.90
19252;DHT22;9760;50.944;5.304;2023-04-15T15:19:38;15.10;99.90
19252;DHT22;9760;50.944;5.304;2023-04-15T15:22:04;15.30;99.90
19252;DHT22;9760;50.944;5.304;2023-04-15T15:24:30;15.30;99.90
19252;DHT22;9760;50.944;5.304;2023-04-15T15:26:55;15.20;99.90
19252;DHT22;9760;50.944;5.304;2023-04-15T15:29:22;15.20;99.90
19252;DHT22;9760;50.944;5.304;2023-04-15T15:31:47;15.40;99.90
19252;DHT22;9760;50.944;5.304;2023-04-15T15:34:15;15.50;99.90
19252;DHT22;9760;50.944;5.304;2023-04-15T15:36:41;15.30;99.90
19252;DHT22;9760;50.944;5.304;2023-04-15T15:39:07;15.10;99.90
19252;DHT22;9760;50.944;5.304;2023-04-15T15:41:33;15.10;99.90
19252;DHT22;9760;50.944;5.304;2023-04-15T15:43:58;15.40;99.90
19252;DHT22;9760;50.944;5.304;2023-04-15T15:46:25;15.50;99.90
19252;DHT22;9760;50.944;5.304;2023-04-15T15:48:52;16.20;99.90
19252;DHT22;9760;50.944;5.304;2023-04-15T15:51:18;17.30;99.90
19252;DHT22;9760;50.944;5.304;2023-04-15T15:53:44;18.10;99.90